createdAt,value
2022-08-05T00:00:42.000Z,25.70
2022-08-05T00:00:42.000Z,25.70
2022-08-05T00:01:42.000Z,25.68
2022-08-05T00:01:42.000Z,25.68
2022-08-05T00:02:42.000Z,25.68
2022-08-05T00:02:42.000Z,25.68
2022-08-05T00:03:42.000Z,25.66
2022-08-05T00:03:42.000Z,25.66
2022-08-05T00:04:42.000Z,25.62
2022-08-05T00:05:42.000Z,25.62
2022-08-05T00:06:42.000Z,25.62
2022-08-05T00:07:42.000Z,25.59
2022-08-05T00:08:42.000Z,25.58
2022-08-05T00:09:42.000Z,25.59
2022-08-05T00:10:42.000Z,25.53
2022-08-05T00:11:42.000Z,25.51
2022-08-05T00:12:42.000Z,25.48
2022-08-05T00:13:42.000Z,25.44
2022-08-05T00:14:42.000Z,25.41
2022-08-05T00:14:42.000Z,25.41
2022-08-05T00:15:42.000Z,25.44
2022-08-05T00:15:42.000Z,25.44
2022-08-05T00:16:42.000Z,25.41
2022-08-05T00:16:42.000Z,25.41
2022-08-05T00:17:42.000Z,25.40
2022-08-05T00:17:42.000Z,25.40
2022-08-05T00:18:42.000Z,25.43
2022-08-05T00:18:42.000Z,25.43
2022-08-05T00:19:42.000Z,25.41
2022-08-05T00:20:42.000Z,25.35
2022-08-05T00:21:42.000Z,25.36
2022-08-05T00:22:42.000Z,25.33
2022-08-05T00:23:42.000Z,25.33
2022-08-05T00:24:42.000Z,25.28
2022-08-05T00:25:42.000Z,25.28
2022-08-05T00:26:42.000Z,25.23
2022-08-05T00:27:42.000Z,25.26
2022-08-05T00:28:42.000Z,25.26
2022-08-05T00:29:42.000Z,25.25
2022-08-05T00:29:42.000Z,25.25
2022-08-05T00:29:42.000Z,25.25
2022-08-05T00:30:42.000Z,25.25
2022-08-05T00:30:42.000Z,25.25
2022-08-05T00:30:42.000Z,25.25
2022-08-05T00:31:42.000Z,25.21
2022-08-05T00:31:42.000Z,25.21
2022-08-05T00:31:42.000Z,25.21
2022-08-05T00:32:42.000Z,25.25
2022-08-05T00:32:42.000Z,25.25
2022-08-05T00:32:42.000Z,25.25
2022-08-05T00:33:42.000Z,25.18
2022-08-05T00:33:42.000Z,25.18
2022-08-05T00:33:42.000Z,25.18
2022-08-05T00:34:42.000Z,25.18
2022-08-05T00:34:42.000Z,25.18
2022-08-05T00:35:42.000Z,25.17
2022-08-05T00:35:42.000Z,25.17
2022-08-05T00:36:42.000Z,25.16
2022-08-05T00:36:42.000Z,25.16
2022-08-05T00:37:42.000Z,25.14
2022-08-05T00:37:42.000Z,25.14
2022-08-05T00:38:42.000Z,25.17
2022-08-05T00:38:42.000Z,25.17
2022-08-05T00:39:42.000Z,25.16
2022-08-05T00:40:42.000Z,25.13
2022-08-05T00:41:42.000Z,25.10
2022-08-05T00:42:42.000Z,25.08
2022-08-05T00:43:42.000Z,25.07
2022-08-05T00:44:42.000Z,25.08
2022-08-05T00:45:42.000Z,25.07
2022-08-05T00:46:42.000Z,25.04
2022-08-05T00:47:42.000Z,25.04
2022-08-05T00:48:42.000Z,25.01
2022-08-05T00:49:42.000Z,24.99
2022-08-05T00:50:42.000Z,24.99
2022-08-05T00:51:42.000Z,24.95
2022-08-05T00:52:42.000Z,24.95
2022-08-05T00:53:42.000Z,24.92
2022-08-05T00:54:42.000Z,24.92
2022-08-05T00:55:42.000Z,24.93
2022-08-05T00:56:42.000Z,24.88
2022-08-05T00:57:42.000Z,24.89
2022-08-05T00:58:42.000Z,24.88
2022-08-05T00:59:42.000Z,24.85
2022-08-05T01:00:42.000Z,24.86
2022-08-05T01:01:42.000Z,24.84
2022-08-05T01:02:42.000Z,24.80
2022-08-05T01:03:42.000Z,24.80
2022-08-05T01:04:42.000Z,24.76
2022-08-05T01:04:42.000Z,24.76
2022-08-05T01:05:42.000Z,24.77
2022-08-05T01:05:42.000Z,24.77
2022-08-05T01:06:42.000Z,24.76
2022-08-05T01:06:42.000Z,24.76
2022-08-05T01:07:42.000Z,24.74
2022-08-05T01:07:42.000Z,24.74
2022-08-05T01:08:42.000Z,24.77
2022-08-05T01:08:42.000Z,24.77
2022-08-05T01:09:42.000Z,24.70
2022-08-05T01:10:42.000Z,24.73
2022-08-05T01:11:42.000Z,24.74
2022-08-05T01:12:42.000Z,24.73
2022-08-05T01:13:42.000Z,24.69
2022-08-05T01:14:42.000Z,24.68
2022-08-05T01:14:42.000Z,24.68
2022-08-05T01:15:42.000Z,24.65
2022-08-05T01:15:42.000Z,24.65
2022-08-05T01:16:42.000Z,24.63
2022-08-05T01:16:42.000Z,24.63
2022-08-05T01:17:42.000Z,24.65
2022-08-05T01:17:42.000Z,24.65
2022-08-05T01:18:42.000Z,24.63
2022-08-05T01:18:42.000Z,24.63
2022-08-05T01:19:42.000Z,24.65
2022-08-05T01:20:42.000Z,24.63
2022-08-05T01:21:42.000Z,24.63
2022-08-05T01:22:42.000Z,24.57
2022-08-05T01:23:42.000Z,24.53
2022-08-05T01:24:42.000Z,24.54
2022-08-05T01:25:42.000Z,24.48
2022-08-05T01:26:42.000Z,24.47
2022-08-05T01:27:41.000Z,24.39
2022-08-05T01:28:41.000Z,24.39
2022-08-05T01:29:41.000Z,24.36
2022-08-05T01:30:41.000Z,24.32
2022-08-05T01:31:41.000Z,24.32
2022-08-05T01:32:41.000Z,24.30
2022-08-05T01:33:41.000Z,24.33
2022-08-05T04:36:18.000Z,23.99
2022-08-05T04:36:18.000Z,23.99
2022-08-05T04:36:18.000Z,24.01
2022-08-05T04:36:18.000Z,23.99
2022-08-05T04:36:18.000Z,24.01
2022-08-05T04:37:18.000Z,24.01
2022-08-05T04:37:18.000Z,24.01
2022-08-05T04:38:18.000Z,24.03
2022-08-05T04:38:18.000Z,24.03
2022-08-05T04:39:18.000Z,23.99
2022-08-05T04:39:18.000Z,23.99
2022-08-05T04:40:18.000Z,23.96
2022-08-05T04:40:18.000Z,23.96
2022-08-05T04:41:18.000Z,23.98
2022-08-05T04:42:18.000Z,23.95
2022-08-05T04:43:18.000Z,23.93
2022-08-05T04:44:18.000Z,23.93
2022-08-05T04:45:18.000Z,23.92
2022-08-05T05:49:30.000Z,26.85
2022-08-05T05:49:30.000Z,26.84
2022-08-05T05:49:30.000Z,26.85
2022-08-05T05:49:30.000Z,26.84
2022-08-05T05:50:30.000Z,26.81
2022-08-05T05:50:30.000Z,26.81
2022-08-05T05:51:30.000Z,26.77
2022-08-05T05:52:30.000Z,26.68
2022-08-05T05:53:30.000Z,26.55
2022-08-05T05:54:30.000Z,26.40
2022-08-05T05:55:30.000Z,26.21
2022-08-05T05:56:30.000Z,26.13
2022-08-05T05:56:30.000Z,26.13
2022-08-05T05:57:30.000Z,26.05
2022-08-05T05:57:30.000Z,26.05
2022-08-05T05:58:30.000Z,26.02
2022-08-05T05:58:30.000Z,26.02
2022-08-05T05:59:30.000Z,25.90
2022-08-05T05:59:30.000Z,25.90
2022-08-05T06:00:30.000Z,25.81
2022-08-05T06:00:30.000Z,25.81
2022-08-05T06:01:30.000Z,25.69
2022-08-05T06:02:30.000Z,25.60
2022-08-05T06:03:30.000Z,25.54
2022-08-05T06:04:30.000Z,25.36
2022-08-05T06:05:30.000Z,25.17
2022-08-05T06:07:47.000Z,24.91
2022-08-05T06:07:47.000Z,25.04
2022-08-05T06:07:47.000Z,25.04
2022-08-05T06:07:47.000Z,24.91
2022-08-05T06:08:47.000Z,24.84
2022-08-05T06:08:47.000Z,24.84
2022-08-05T06:09:47.000Z,24.85
2022-08-05T06:09:47.000Z,24.85
2022-08-05T06:10:47.000Z,24.78
2022-08-05T06:10:47.000Z,24.78
2022-08-05T06:11:47.000Z,24.76
2022-08-05T06:12:47.000Z,24.73
2022-08-05T06:13:47.000Z,24.69
2022-08-05T06:14:47.000Z,24.65
2022-08-05T06:15:46.000Z,24.60
2022-08-05T06:16:46.000Z,24.60
2022-08-05T06:17:46.000Z,24.58
2022-08-05T06:18:46.000Z,24.54
2022-08-05T06:19:46.000Z,24.51
2022-08-05T06:20:46.000Z,24.50
2022-08-05T06:21:46.000Z,24.50
2022-08-05T06:22:46.000Z,24.51
2022-08-05T06:23:46.000Z,24.48
2022-08-05T06:24:46.000Z,24.53
2022-08-05T06:25:46.000Z,24.53
2022-08-05T06:26:46.000Z,24.53
2022-08-05T06:27:46.000Z,24.54
2022-08-05T06:28:46.000Z,24.55
2022-08-05T06:29:46.000Z,24.57
2022-08-05T06:30:46.000Z,24.55
2022-08-05T06:31:46.000Z,24.57
2022-08-05T06:32:46.000Z,24.61
2022-08-05T06:33:46.000Z,24.61
2022-08-05T06:34:46.000Z,24.58
2022-08-05T06:35:46.000Z,24.54
2022-08-05T06:36:46.000Z,24.47
2022-08-05T06:37:46.000Z,24.40
2022-08-05T06:38:46.000Z,24.38
2022-08-05T06:39:46.000Z,24.30
2022-08-05T06:40:46.000Z,24.26
2022-08-05T06:41:46.000Z,24.20
2022-08-05T06:42:46.000Z,24.16
2022-08-05T06:43:46.000Z,24.13
2022-08-05T06:44:46.000Z,24.10
2022-08-05T06:45:46.000Z,24.06
2022-08-05T06:46:46.000Z,24.03
2022-08-05T06:47:46.000Z,24.02
2022-08-05T06:48:46.000Z,24.06
2022-08-05T06:49:46.000Z,24.01
2022-08-05T06:50:46.000Z,24.03
2022-08-05T06:51:46.000Z,24.01
2022-08-05T06:51:46.000Z,24.01
2022-08-05T06:52:46.000Z,24.05
2022-08-05T06:52:46.000Z,24.05
2022-08-05T06:53:46.000Z,24.05
2022-08-05T06:53:46.000Z,24.05
2022-08-05T06:54:46.000Z,24.02
2022-08-05T06:54:46.000Z,24.02
2022-08-05T06:55:46.000Z,24.06
2022-08-05T06:55:46.000Z,24.06
2022-08-05T06:56:46.000Z,24.05
2022-08-05T06:57:46.000Z,24.05
2022-08-05T06:58:46.000Z,24.05
2022-08-05T06:59:46.000Z,24.08
2022-08-05T07:00:46.000Z,24.10
2022-08-05T07:01:46.000Z,24.10
2022-08-05T07:02:46.000Z,24.10
2022-08-05T07:03:46.000Z,24.13
2022-08-05T07:04:46.000Z,24.14
2022-08-05T07:05:46.000Z,24.17
2022-08-05T07:06:46.000Z,24.23
2022-08-05T07:07:46.000Z,24.24
2022-08-05T07:08:46.000Z,24.32
2022-08-05T07:09:46.000Z,24.33
2022-08-05T07:10:46.000Z,24.33
2022-08-05T07:11:46.000Z,24.42
2022-08-05T07:11:46.000Z,24.42
2022-08-05T07:12:46.000Z,24.45
2022-08-05T07:12:46.000Z,24.45
2022-08-05T07:13:46.000Z,24.50
2022-08-05T07:13:46.000Z,24.50
2022-08-05T07:14:46.000Z,24.57
2022-08-05T07:14:46.000Z,24.57
2022-08-05T07:15:46.000Z,24.63
2022-08-05T07:15:46.000Z,24.63
2022-08-05T07:16:46.000Z,24.73
2022-08-05T07:17:46.000Z,24.80
2022-08-05T07:18:46.000Z,24.85
2022-08-05T07:19:46.000Z,24.92
2022-08-05T07:20:46.000Z,25.01
2022-08-05T07:36:16.000Z,25.77
2022-08-05T07:36:16.000Z,25.75
2022-08-05T07:36:16.000Z,25.75
2022-08-05T07:36:16.000Z,25.77
2022-08-05T07:37:16.000Z,25.80
2022-08-05T07:37:16.000Z,25.80
2022-08-05T07:38:16.000Z,25.81
2022-08-05T07:38:16.000Z,25.81
2022-08-05T07:39:16.000Z,25.83
2022-08-05T07:40:16.000Z,25.91
2022-08-05T07:41:16.000Z,25.99
2022-08-05T07:42:16.000Z,26.10
2022-08-05T07:43:16.000Z,26.19
2022-08-05T07:44:16.000Z,26.36
2022-08-05T07:45:16.000Z,26.47
2022-08-05T07:46:16.000Z,26.65
2022-08-05T07:47:16.000Z,26.84
2022-08-05T07:48:16.000Z,27.05
2022-08-05T07:49:16.000Z,27.22
2022-08-05T07:49:16.000Z,27.22
2022-08-05T07:50:16.000Z,27.39
2022-08-05T07:50:16.000Z,27.39
2022-08-05T07:51:16.000Z,27.48
2022-08-05T07:51:16.000Z,27.48
2022-08-05T07:52:16.000Z,27.54
2022-08-05T07:52:16.000Z,27.54
2022-08-05T07:53:16.000Z,27.71
2022-08-05T07:53:16.000Z,27.71
2022-08-05T07:54:16.000Z,27.80
2022-08-05T07:55:16.000Z,27.92
2022-08-05T07:56:16.000Z,27.92
2022-08-05T07:57:16.000Z,27.90
2022-08-05T07:58:16.000Z,27.92
2022-08-05T08:07:55.000Z,27.95
2022-08-05T08:07:55.000Z,27.92
2022-08-05T08:08:55.000Z,27.92
2022-08-05T08:09:55.000Z,27.96
2022-08-05T08:10:55.000Z,27.93
2022-08-05T08:10:55.000Z,27.93
2022-08-05T08:11:55.000Z,27.95
2022-08-05T08:11:55.000Z,27.95
2022-08-05T08:12:55.000Z,27.93
2022-08-05T08:12:55.000Z,27.93
2022-08-05T08:13:55.000Z,27.95
2022-08-05T08:13:55.000Z,27.95
2022-08-05T08:14:54.000Z,27.96
2022-08-05T08:14:54.000Z,27.96
2022-08-05T08:15:54.000Z,27.96
2022-08-05T08:16:54.000Z,27.96
2022-08-05T08:17:54.000Z,27.87
2022-08-05T08:18:54.000Z,27.93
2022-08-05T08:19:54.000Z,27.93
2022-08-05T08:31:05.000Z,28.08
2022-08-05T08:31:05.000Z,28.12
2022-08-05T08:32:05.000Z,28.11
2022-08-05T08:33:05.000Z,28.17
2022-08-05T08:34:05.000Z,28.23
2022-08-05T08:35:05.000Z,28.23
2022-08-05T08:36:05.000Z,28.20
2022-08-05T08:37:05.000Z,28.26
2022-08-05T08:38:05.000Z,28.33
2022-08-05T08:39:05.000Z,28.44
2022-08-05T08:40:05.000Z,28.57
2022-08-05T08:40:05.000Z,28.57
2022-08-05T08:41:05.000Z,28.67
2022-08-05T08:41:05.000Z,28.67
2022-08-05T08:42:05.000Z,28.79
2022-08-05T08:42:05.000Z,28.79
2022-08-05T08:43:05.000Z,29.01
2022-08-05T08:43:05.000Z,29.01
2022-08-05T08:44:05.000Z,29.27
2022-08-05T08:44:05.000Z,29.27
2022-08-05T08:45:05.000Z,29.45
2022-08-05T08:46:05.000Z,29.65
2022-08-05T08:47:05.000Z,29.72
2022-08-05T08:48:05.000Z,29.87
2022-08-05T08:49:05.000Z,29.98
2022-08-05T08:55:30.000Z,30.72
2022-08-05T08:55:30.000Z,30.94
2022-08-05T08:55:30.000Z,30.94
2022-08-05T08:55:30.000Z,30.72
2022-08-05T08:56:30.000Z,31.10
2022-08-05T08:56:30.000Z,31.10
2022-08-05T08:57:30.000Z,31.34
2022-08-05T08:57:30.000Z,31.34
2022-08-05T08:58:30.000Z,31.56
2022-08-05T08:58:30.000Z,31.56
2022-08-05T08:59:30.000Z,31.80
2022-08-05T09:00:30.000Z,31.85
2022-08-05T09:01:30.000Z,31.74
2022-08-05T09:02:30.000Z,31.80
2022-08-05T09:03:30.000Z,31.92
2022-08-05T09:23:20.000Z,29.75
2022-08-05T09:23:20.000Z,29.60
2022-08-05T09:23:20.000Z,29.60
2022-08-05T09:23:20.000Z,29.75
2022-08-05T09:24:20.000Z,29.50
2022-08-05T09:24:20.000Z,29.50
2022-08-05T09:25:20.000Z,29.22
2022-08-05T09:26:20.000Z,28.88
2022-08-05T09:27:20.000Z,28.63
2022-08-05T09:28:20.000Z,28.41
2022-08-05T09:29:19.000Z,28.14
2022-08-05T09:30:19.000Z,28.00
2022-08-05T09:31:19.000Z,27.74
2022-08-05T09:32:19.000Z,27.51
2022-08-05T09:33:19.000Z,27.29
2022-08-05T09:34:19.000Z,27.14
2022-08-05T09:35:19.000Z,27.02
2022-08-05T09:36:19.000Z,26.97
2022-08-05T09:37:19.000Z,26.90
2022-08-05T09:38:19.000Z,26.73
2022-08-05T09:39:19.000Z,26.59
2022-08-05T09:40:19.000Z,26.47
2022-08-05T09:40:19.000Z,26.47
2022-08-05T09:41:19.000Z,26.36
2022-08-05T09:41:19.000Z,26.36
2022-08-05T09:42:19.000Z,26.29
2022-08-05T09:42:19.000Z,26.29
2022-08-05T09:43:19.000Z,26.22
2022-08-05T09:43:19.000Z,26.22
2022-08-05T09:44:19.000Z,26.23
2022-08-05T09:44:19.000Z,26.23
2022-08-05T09:45:19.000Z,26.26
2022-08-05T09:46:19.000Z,26.28
2022-08-05T09:47:19.000Z,26.41
2022-08-05T09:48:19.000Z,26.51
2022-08-05T09:49:19.000Z,26.56
2022-08-05T10:11:37.000Z,27.30
2022-08-05T10:11:37.000Z,27.37
2022-08-05T10:12:37.000Z,27.25
2022-08-05T10:13:37.000Z,27.20
2022-08-05T10:14:37.000Z,27.07
2022-08-05T10:15:37.000Z,27.00
2022-08-05T10:16:37.000Z,26.96
2022-08-05T10:17:37.000Z,26.88
2022-08-05T10:18:37.000Z,26.90
2022-08-05T10:19:37.000Z,26.92
2022-08-05T10:20:37.000Z,26.88
2022-08-05T10:21:37.000Z,26.84
2022-08-05T10:22:37.000Z,26.92
2022-08-05T10:23:37.000Z,26.97
2022-08-05T10:24:36.000Z,27.07
2022-08-05T10:25:36.000Z,27.29
2022-08-05T10:25:36.000Z,27.29
2022-08-05T10:25:36.000Z,27.29
2022-08-05T10:26:36.000Z,27.54
2022-08-05T10:26:36.000Z,27.54
2022-08-05T10:26:36.000Z,27.54
2022-08-05T10:27:36.000Z,27.83
2022-08-05T10:27:36.000Z,27.83
2022-08-05T10:27:36.000Z,27.83
2022-08-05T10:28:36.000Z,28.11
2022-08-05T10:28:36.000Z,28.11
2022-08-05T10:28:36.000Z,28.11
2022-08-05T10:29:36.000Z,28.22
2022-08-05T10:29:36.000Z,28.22
2022-08-05T10:29:36.000Z,28.22
2022-08-05T10:30:36.000Z,28.33
2022-08-05T10:30:36.000Z,28.33
2022-08-05T10:31:36.000Z,28.39
2022-08-05T10:31:36.000Z,28.39
2022-08-05T10:32:36.000Z,28.44
2022-08-05T10:32:36.000Z,28.44
2022-08-05T10:33:36.000Z,28.47
2022-08-05T10:33:36.000Z,28.47
2022-08-05T10:34:36.000Z,28.47
2022-08-05T10:34:36.000Z,28.47
2022-08-05T10:35:36.000Z,28.51
2022-08-05T10:36:36.000Z,28.70
2022-08-05T10:37:36.000Z,28.72
2022-08-05T10:38:36.000Z,28.85
2022-08-05T10:39:36.000Z,28.97
2022-08-05T10:40:36.000Z,29.22
2022-08-05T10:41:36.000Z,29.47
2022-08-05T10:42:36.000Z,29.72
2022-08-05T10:43:36.000Z,29.95
2022-08-05T10:44:36.000Z,30.16
2022-08-05T10:45:36.000Z,30.21
2022-08-05T10:46:36.000Z,30.43
2022-08-05T10:47:36.000Z,30.57
2022-08-05T10:48:36.000Z,30.63
2022-08-05T10:49:36.000Z,30.85
2022-08-05T10:50:36.000Z,31.07
2022-08-05T10:50:36.000Z,31.07
2022-08-05T10:51:36.000Z,31.24
2022-08-05T10:51:36.000Z,31.24
2022-08-05T10:52:36.000Z,31.28
2022-08-05T10:52:36.000Z,31.28
2022-08-05T10:53:36.000Z,31.56
2022-08-05T10:53:36.000Z,31.56
2022-08-05T10:54:36.000Z,31.73
2022-08-05T10:54:36.000Z,31.73
2022-08-05T10:55:36.000Z,31.94
2022-08-05T10:56:36.000Z,32.03
2022-08-05T10:57:36.000Z,32.30
2022-08-05T10:58:36.000Z,32.51
2022-08-05T10:59:36.000Z,32.80
2022-08-05T11:02:53.000Z,33.11
2022-08-05T11:02:53.000Z,33.01
2022-08-05T11:03:53.000Z,33.24
2022-08-05T11:04:53.000Z,33.43
2022-08-05T11:05:53.000Z,33.65
2022-08-05T11:05:53.000Z,33.65
2022-08-05T11:06:53.000Z,33.77
2022-08-05T11:06:53.000Z,33.77
2022-08-05T11:07:53.000Z,33.87
2022-08-05T11:07:53.000Z,33.87
2022-08-05T11:08:53.000Z,33.92
2022-08-05T11:08:53.000Z,33.92
2022-08-05T11:09:53.000Z,33.99
2022-08-05T11:09:53.000Z,33.99
2022-08-05T11:10:53.000Z,33.87
2022-08-05T11:11:53.000Z,33.89
2022-08-05T11:12:53.000Z,34.03
2022-08-05T11:13:53.000Z,34.14
2022-08-05T11:14:53.000Z,34.24
2022-08-05T11:15:53.000Z,34.21
2022-08-05T11:16:53.000Z,34.16
2022-08-05T11:17:53.000Z,34.17
2022-08-05T11:18:52.000Z,34.21
2022-08-05T11:19:52.000Z,34.33
2022-08-05T11:20:52.000Z,34.10
2022-08-05T11:20:52.000Z,34.10
2022-08-05T11:21:52.000Z,34.21
2022-08-05T11:21:52.000Z,34.21
2022-08-05T11:22:52.000Z,34.45
2022-08-05T11:22:52.000Z,34.45
2022-08-05T11:23:52.000Z,34.47
2022-08-05T11:23:52.000Z,34.47
2022-08-05T11:24:52.000Z,34.50
2022-08-05T11:24:52.000Z,34.50
2022-08-05T11:25:52.000Z,34.55
2022-08-05T11:26:52.000Z,34.54
2022-08-05T11:27:52.000Z,34.45
2022-08-05T11:28:52.000Z,34.64
2022-08-05T11:29:52.000Z,34.61
2022-08-05T11:30:52.000Z,34.75
2022-08-05T11:30:52.000Z,34.75
2022-08-05T11:31:52.000Z,34.95
2022-08-05T11:31:52.000Z,34.95
2022-08-05T11:32:52.000Z,35.08
2022-08-05T11:32:52.000Z,35.08
2022-08-05T11:33:52.000Z,35.22
2022-08-05T11:33:52.000Z,35.22
2022-08-05T11:34:52.000Z,35.23
2022-08-05T11:34:52.000Z,35.23
2022-08-05T11:35:52.000Z,35.34
2022-08-05T11:36:52.000Z,35.46
2022-08-05T11:37:52.000Z,35.60
2022-08-05T11:38:52.000Z,35.76
2022-08-05T11:39:52.000Z,35.67
2022-08-05T11:57:38.000Z,37.74
2022-08-05T11:57:38.000Z,37.71
2022-08-05T11:57:38.000Z,37.71
2022-08-05T11:57:38.000Z,37.74
2022-08-05T11:58:38.000Z,37.87
2022-08-05T11:58:38.000Z,37.87
2022-08-05T11:59:38.000Z,38.06
2022-08-05T11:59:38.000Z,38.06
2022-08-05T12:00:38.000Z,38.19
2022-08-05T12:00:38.000Z,38.19
2022-08-05T12:01:38.000Z,38.19
2022-08-05T12:02:38.000Z,38.06
2022-08-05T12:03:38.000Z,37.87
2022-08-05T12:04:38.000Z,37.82
2022-08-05T12:05:38.000Z,37.83
2022-08-05T12:06:38.000Z,37.68
2022-08-05T12:07:38.000Z,37.63
2022-08-05T12:08:38.000Z,37.92
2022-08-05T12:09:38.000Z,37.77
2022-08-05T12:10:38.000Z,37.47
2022-08-05T12:11:38.000Z,37.01
2022-08-05T12:12:38.000Z,36.96
2022-08-05T12:13:38.000Z,37.28
2022-08-05T12:14:38.000Z,37.21
2022-08-05T12:15:38.000Z,37.18
2022-08-05T12:16:38.000Z,37.36
2022-08-05T12:17:38.000Z,37.68
2022-08-05T12:18:38.000Z,37.93
2022-08-05T12:19:38.000Z,37.93
2022-08-05T12:20:38.000Z,38.23
2022-08-05T12:21:38.000Z,38.20
2022-08-05T12:22:38.000Z,38.30
2022-08-05T12:23:38.000Z,38.15
2022-08-05T12:24:38.000Z,38.05
2022-08-05T12:25:38.000Z,38.20
2022-08-05T12:26:38.000Z,38.26
2022-08-05T12:26:38.000Z,38.26
2022-08-05T12:27:38.000Z,38.50
2022-08-05T12:27:38.000Z,38.50
2022-08-05T12:28:38.000Z,38.79
2022-08-05T12:28:38.000Z,38.79
2022-08-05T12:29:38.000Z,38.86
2022-08-05T12:29:38.000Z,38.86
2022-08-05T12:30:38.000Z,38.95
2022-08-05T12:30:38.000Z,38.95
2022-08-05T12:31:38.000Z,38.96
2022-08-05T12:32:38.000Z,38.84
2022-08-05T12:33:38.000Z,38.69
2022-08-05T12:34:38.000Z,38.62
2022-08-05T12:35:38.000Z,38.39
2022-08-05T12:36:38.000Z,38.17
2022-08-05T12:37:38.000Z,37.75
2022-08-05T12:38:38.000Z,37.30
2022-08-05T12:39:38.000Z,37.01
2022-08-05T12:40:38.000Z,36.79
2022-08-05T12:41:38.000Z,36.64
2022-08-05T12:42:38.000Z,36.33
2022-08-05T12:43:38.000Z,36.00
2022-08-05T12:44:38.000Z,35.78
2022-08-05T12:45:38.000Z,35.55
2022-08-05T12:46:38.000Z,35.31
2022-08-05T12:47:38.000Z,35.05
2022-08-05T12:48:38.000Z,34.88
2022-08-05T12:49:38.000Z,34.66
2022-08-05T12:50:38.000Z,34.57
2022-08-05T13:05:49.000Z,32.49
2022-08-05T13:05:49.000Z,32.33
2022-08-05T13:06:49.000Z,32.22
2022-08-05T13:07:49.000Z,32.14
2022-08-05T13:08:49.000Z,32.03
2022-08-05T13:09:49.000Z,31.96
2022-08-05T13:10:49.000Z,31.93
2022-08-05T13:11:49.000Z,31.84
2022-08-05T13:27:21.000Z,32.09
2022-08-05T13:27:21.000Z,32.30
2022-08-05T13:28:21.000Z,32.74
2022-08-05T13:29:21.000Z,33.05
2022-08-05T13:30:21.000Z,33.36
2022-08-05T14:45:31.000Z,32.49
2022-08-05T14:45:31.000Z,32.53
2022-08-05T14:45:31.000Z,32.53
2022-08-05T14:45:31.000Z,32.49
2022-08-05T14:45:31.000Z,32.49
2022-08-05T14:45:31.000Z,32.53
2022-08-05T14:46:31.000Z,32.43
2022-08-05T14:46:31.000Z,32.43
2022-08-05T14:46:31.000Z,32.43
2022-08-05T14:47:31.000Z,32.55
2022-08-05T14:47:31.000Z,32.55
2022-08-05T14:47:31.000Z,32.55
2022-08-05T14:48:31.000Z,32.89
2022-08-05T14:48:31.000Z,32.89
2022-08-05T14:48:31.000Z,32.89
2022-08-05T14:49:31.000Z,32.95
2022-08-05T14:49:31.000Z,32.95
2022-08-05T14:50:31.000Z,32.97
2022-08-05T14:50:31.000Z,32.97
2022-08-05T14:51:31.000Z,32.97
2022-08-05T14:51:31.000Z,32.97
2022-08-05T14:52:31.000Z,33.05
2022-08-05T14:52:31.000Z,33.05
2022-08-05T14:53:31.000Z,33.12
2022-08-05T14:53:31.000Z,33.12
2022-08-05T14:54:31.000Z,33.32
2022-08-05T14:55:31.000Z,33.40
2022-08-05T14:56:31.000Z,33.39
2022-08-05T14:57:31.000Z,33.36
2022-08-05T14:58:31.000Z,33.42
2022-08-05T15:11:48.000Z,30.65
2022-08-05T15:11:48.000Z,30.34
2022-08-05T15:12:48.000Z,30.18
2022-08-05T15:13:48.000Z,29.95
2022-08-05T15:14:48.000Z,29.78
2022-08-05T15:15:48.000Z,29.66
2022-08-05T15:15:48.000Z,29.66
2022-08-05T15:16:48.000Z,29.59
2022-08-05T15:16:48.000Z,29.59
2022-08-05T15:17:48.000Z,29.42
2022-08-05T15:17:48.000Z,29.42
2022-08-05T15:18:48.000Z,29.35
2022-08-05T15:18:48.000Z,29.35
2022-08-05T15:19:48.000Z,29.17
2022-08-05T15:19:48.000Z,29.17
2022-08-05T15:20:48.000Z,29.16
2022-08-05T15:21:48.000Z,29.14
2022-08-05T15:22:48.000Z,29.14
2022-08-05T15:23:48.000Z,29.20
2022-08-05T15:24:48.000Z,29.22
2022-08-05T15:25:48.000Z,29.27
2022-08-05T15:26:48.000Z,29.20
2022-08-05T15:27:48.000Z,28.96
2022-08-05T15:28:48.000Z,28.85
2022-08-05T15:29:48.000Z,28.57
2022-08-05T15:30:48.000Z,28.56
2022-08-05T15:30:48.000Z,28.56
2022-08-05T15:31:48.000Z,28.39
2022-08-05T15:31:48.000Z,28.39
2022-08-05T15:32:48.000Z,28.33
2022-08-05T15:32:48.000Z,28.33
2022-08-05T15:33:48.000Z,28.14
2022-08-05T15:33:48.000Z,28.14
2022-08-05T15:34:48.000Z,27.93
2022-08-05T15:34:48.000Z,27.93
2022-08-05T15:35:48.000Z,27.73
2022-08-05T15:36:48.000Z,27.59
2022-08-05T15:37:48.000Z,27.35
2022-08-05T15:38:48.000Z,27.15
2022-08-05T15:39:48.000Z,27.00
2022-08-05T15:42:05.000Z,26.55
2022-08-05T15:42:05.000Z,26.83
2022-08-05T15:43:05.000Z,26.40
2022-08-05T15:44:05.000Z,26.31
2022-08-05T15:45:05.000Z,26.13
2022-08-05T15:46:05.000Z,26.10
2022-08-05T15:47:05.000Z,26.05
2022-08-05T15:48:05.000Z,25.95
2022-08-05T15:49:05.000Z,25.95
2022-08-05T15:50:05.000Z,25.84
2022-08-05T15:51:05.000Z,25.83
2022-08-05T15:52:05.000Z,25.73
2022-08-05T15:53:05.000Z,25.66
2022-08-05T15:54:05.000Z,25.63
2022-08-05T15:55:05.000Z,25.58
2022-08-05T15:56:05.000Z,25.50
2022-08-05T15:57:05.000Z,25.41
2022-08-05T15:58:05.000Z,25.31
2022-08-05T15:59:05.000Z,25.16
2022-08-05T16:00:05.000Z,25.01
2022-08-05T16:01:05.000Z,24.80
2022-08-05T16:02:05.000Z,24.58
2022-08-05T16:03:05.000Z,24.43
2022-08-05T16:04:05.000Z,24.32
2022-08-05T16:05:05.000Z,24.28
2022-08-05T16:06:05.000Z,24.18
2022-08-05T16:07:05.000Z,24.08
2022-08-05T16:08:05.000Z,24.03
2022-08-05T16:09:05.000Z,24.01
2022-08-05T16:10:05.000Z,23.87
2022-08-05T16:11:05.000Z,23.77
2022-08-05T16:11:05.000Z,23.77
2022-08-05T16:12:05.000Z,23.74
2022-08-05T16:12:05.000Z,23.74
2022-08-05T16:13:05.000Z,23.66
2022-08-05T16:13:05.000Z,23.66
2022-08-05T16:14:05.000Z,23.59
2022-08-05T16:14:05.000Z,23.59
2022-08-05T16:15:05.000Z,23.55
2022-08-05T16:15:05.000Z,23.55
2022-08-05T16:16:05.000Z,23.50
2022-08-05T16:17:05.000Z,23.50
2022-08-05T16:18:04.000Z,23.55
2022-08-05T16:19:04.000Z,23.54
2022-08-05T16:20:04.000Z,23.55
2022-08-05T16:21:04.000Z,23.56
2022-08-05T16:22:04.000Z,23.59
2022-08-05T16:23:04.000Z,23.62
2022-08-05T16:24:04.000Z,23.65
2022-08-05T16:25:04.000Z,23.74
2022-08-05T16:26:04.000Z,23.77
2022-08-05T16:27:04.000Z,23.83
2022-08-05T16:28:04.000Z,23.84
2022-08-05T16:29:04.000Z,23.86
2022-08-05T16:30:04.000Z,23.86
2022-08-05T16:31:04.000Z,23.81
2022-08-05T16:31:04.000Z,23.81
2022-08-05T16:32:04.000Z,23.78
2022-08-05T16:32:04.000Z,23.78
2022-08-05T16:33:04.000Z,23.80
2022-08-05T16:33:04.000Z,23.80
2022-08-05T16:34:04.000Z,23.74
2022-08-05T16:34:04.000Z,23.74
2022-08-05T16:35:04.000Z,23.73
2022-08-05T16:35:04.000Z,23.73
2022-08-05T16:36:04.000Z,23.68
2022-08-05T16:37:04.000Z,23.62
2022-08-05T16:38:04.000Z,23.56
2022-08-05T16:39:04.000Z,23.43
2022-08-05T16:40:04.000Z,23.28
2022-08-05T16:48:45.000Z,22.50
2022-08-05T16:48:45.000Z,22.57
2022-08-05T16:49:45.000Z,22.54
2022-08-05T16:50:45.000Z,22.50
2022-08-05T16:51:45.000Z,22.53
2022-08-05T16:52:45.000Z,22.43
2022-08-05T16:52:45.000Z,22.43
2022-08-05T16:53:45.000Z,22.36
2022-08-05T16:53:45.000Z,22.36
2022-08-05T16:54:45.000Z,22.33
2022-08-05T16:54:45.000Z,22.33
2022-08-05T16:55:45.000Z,22.35
2022-08-05T16:55:45.000Z,22.35
2022-08-05T16:56:45.000Z,22.28
2022-08-05T16:56:45.000Z,22.28
2022-08-05T16:57:45.000Z,22.23
2022-08-05T16:58:45.000Z,22.14
2022-08-05T16:59:45.000Z,22.13
2022-08-05T17:00:44.000Z,22.13
2022-08-05T17:01:44.000Z,22.11
2022-08-05T17:02:44.000Z,22.14
2022-08-05T17:03:44.000Z,22.17
2022-08-05T17:04:44.000Z,22.18
2022-08-05T17:05:44.000Z,22.22
2022-08-05T17:06:44.000Z,22.28
2022-08-05T17:07:44.000Z,22.32
2022-08-05T17:08:44.000Z,22.32
2022-08-05T17:09:44.000Z,22.33
2022-08-05T17:10:44.000Z,22.30
2022-08-05T17:11:44.000Z,22.32
2022-08-05T17:23:48.000Z,22.20
2022-08-05T17:23:48.000Z,22.23
2022-08-05T17:24:48.000Z,22.20
2022-08-05T17:25:48.000Z,22.17
2022-08-05T17:25:48.000Z,22.17
2022-08-05T17:26:48.000Z,22.15
2022-08-05T17:26:48.000Z,22.15
2022-08-05T17:27:48.000Z,22.14
2022-08-05T17:27:48.000Z,22.14
2022-08-05T17:28:48.000Z,22.11
2022-08-05T17:28:48.000Z,22.11